createdAt,value
2022-12-25T00:01:48.081Z,101101.44
2022-12-25T00:11:49.489Z,101090.28
2022-12-25T00:21:50.881Z,101093.75
2022-12-25T00:31:52.338Z,101091.31
2022-12-25T00:42:12.411Z,101074.31
2022-12-25T00:52:13.869Z,101069.38
2022-12-25T01:02:24.388Z,101070.38
2022-12-25T01:12:25.966Z,101056.78
2022-12-25T01:22:27.377Z,101074.06
2022-12-25T01:32:28.761Z,101052.75
2022-12-25T01:42:30.213Z,101051.00
2022-12-25T01:52:32.269Z,101055.44
2022-12-25T02:02:34.578Z,101071.03
2022-12-25T02:12:37.336Z,101073.72
2022-12-25T02:22:57.603Z,101083.22
2022-12-25T02:33:20.438Z,101086.69
2022-12-25T02:44:20.085Z,101083.28
2022-12-25T02:54:48.940Z,101081.69
2022-12-25T03:05:11.731Z,101080.84
2022-12-25T03:15:32.620Z,101069.75
2022-12-25T03:25:52.777Z,101056.81
2022-12-25T03:36:17.830Z,101038.81
2022-12-25T03:46:39.160Z,101018.19
2022-12-25T03:57:01.156Z,101003.66
2022-12-25T04:07:21.059Z,100998.56
2022-12-25T04:17:40.637Z,101007.13
2022-12-25T04:28:00.409Z,101008.88
2022-12-25T04:38:02.004Z,101003.56
2022-12-25T04:48:03.535Z,100998.38
2022-12-25T04:58:04.996Z,100982.66
2022-12-25T05:08:06.433Z,100987.81
2022-12-25T05:18:07.952Z,100989.53
2022-12-25T05:28:09.377Z,100992.25
2022-12-25T05:38:10.735Z,100975.16
2022-12-25T05:48:12.112Z,100972.75
2022-12-25T05:58:13.885Z,100966.78
2022-12-25T06:08:15.255Z,100953.91
2022-12-25T06:18:16.603Z,100933.31
2022-12-25T06:28:18.997Z,100921.28
2022-12-25T06:38:20.349Z,100912.75
2022-12-25T06:48:21.695Z,100910.16
2022-12-25T06:58:23.063Z,100897.19
2022-12-25T07:08:24.460Z,100893.72
2022-12-25T07:18:26.792Z,100855.00
2022-12-25T07:28:29.736Z,100835.19
2022-12-25T07:38:31.671Z,100855.00
2022-12-25T07:48:33.559Z,100843.84
2022-12-25T07:58:34.977Z,100837.00
2022-12-25T08:08:38.328Z,100824.09
2022-12-25T08:18:39.913Z,100860.28
2022-12-25T08:28:41.375Z,100879.25
2022-12-25T08:38:43.053Z,100837.09
2022-12-25T08:48:46.222Z,100881.00
2022-12-25T08:58:47.592Z,100843.13
2022-12-25T09:08:49.951Z,100838.00
2022-12-25T09:18:51.879Z,100858.66
2022-12-25T09:28:53.281Z,100859.53
2022-12-25T09:38:54.693Z,100881.13
2022-12-25T09:49:06.169Z,100897.44
2022-12-25T09:59:18.437Z,100894.91
2022-12-25T10:09:45.817Z,100851.00
2022-12-25T10:19:49.875Z,100821.78
2022-12-25T10:29:54.745Z,100795.09
2022-12-25T10:39:57.251Z,100797.72
2022-12-25T10:50:00.710Z,100804.56
2022-12-25T11:00:05.527Z,100770.16
2022-12-25T11:10:32.585Z,100760.72
2022-12-25T11:20:34.134Z,100753.00
2022-12-25T11:30:37.558Z,100722.84
2022-12-25T11:40:46.950Z,100685.78
2022-12-25T11:50:53.054Z,100660.84
2022-12-25T12:00:57.227Z,100638.41
2022-12-25T12:11:21.430Z,100649.63
2022-12-25T12:21:30.866Z,100627.22
2022-12-25T12:31:45.325Z,100606.53
2022-12-25T12:41:48.911Z,100626.34
2022-12-25T12:51:50.783Z,100600.50
2022-12-25T13:02:34.225Z,100580.69
2022-12-25T13:12:36.813Z,100572.06
2022-12-25T13:22:38.274Z,100568.63
2022-12-25T13:32:40.689Z,100555.66
2022-12-25T13:42:47.223Z,100549.66
2022-12-25T13:52:49.142Z,100537.59
2022-12-25T14:02:51.510Z,100544.50
2022-12-25T14:12:56.176Z,100530.72
2022-12-25T14:23:00.653Z,100523.81
2022-12-25T14:33:02.627Z,100507.44
2022-12-25T14:43:18.595Z,100510.03
2022-12-25T14:53:23.061Z,100507.41
2022-12-25T15:03:29.461Z,100510.00
2022-12-25T15:13:31.970Z,100487.59
2022-12-25T15:23:33.485Z,100478.94
2022-12-25T15:33:38.006Z,100463.47
2022-12-25T15:43:43.624Z,100452.25
2022-12-25T15:53:44.994Z,100461.69
2022-12-25T16:03:46.756Z,100447.09
2022-12-25T16:13:48.160Z,100449.63
2022-12-25T16:23:49.799Z,100439.28
2022-12-25T16:33:52.842Z,100442.75
2022-12-25T16:43:54.503Z,100444.41
2022-12-25T16:53:55.928Z,100439.31
2022-12-25T17:04:01.372Z,100424.66
2022-12-25T17:14:05.168Z,100428.13
2022-12-25T17:24:07.038Z,100438.44
2022-12-25T17:34:10.650Z,100441.03
2022-12-25T17:44:12.088Z,100443.66
2022-12-25T17:54:13.744Z,100433.28
2022-12-25T18:04:15.148Z,100443.59
2022-12-25T18:14:16.998Z,100451.34
2022-12-25T18:24:18.352Z,100461.69
2022-12-25T18:34:19.756Z,100447.84
2022-12-25T18:44:21.195Z,100442.66
2022-12-25T18:54:22.549Z,100446.19
2022-12-25T19:04:24.036Z,100462.53
2022-12-25T19:14:28.129Z,100468.56
2022-12-25T19:24:29.459Z,100462.50
2022-12-25T19:34:30.823Z,100459.03
2022-12-25T19:44:32.182Z,100470.25
2022-12-25T19:54:33.746Z,100473.66
2022-12-25T20:04:35.105Z,100471.06
2022-12-25T20:14:36.656Z,100466.78
2022-12-25T20:24:38.064Z,100478.81
2022-12-25T20:34:39.438Z,100484.81
2022-12-25T20:44:40.804Z,100478.81
2022-12-25T20:54:42.362Z,100477.03
2022-12-25T21:04:45.723Z,100498.63
2022-12-25T21:14:50.591Z,100470.13
2022-12-25T21:24:53.214Z,100478.72
2022-12-25T21:34:54.576Z,100495.97
2022-12-25T21:44:55.995Z,100519.25
2022-12-25T21:54:57.407Z,100517.53
2022-12-25T22:04:58.845Z,100532.09
2022-12-25T22:15:06.183Z,100507.13
2022-12-25T22:25:09.062Z,100534.72
2022-12-25T22:35:12.466Z,100531.28
2022-12-25T22:45:14.199Z,100549.38
2022-12-25T22:55:17.705Z,100546.78
2022-12-25T23:05:19.076Z,100537.28
2022-12-25T23:15:20.505Z,100567.47
2022-12-25T23:25:40.377Z,100567.47
2022-12-25T23:35:41.735Z,100554.53
2022-12-25T23:45:43.140Z,100551.06
2022-12-25T23:55:46.568Z,100542.44
